createdAt,value
2024-02-21T00:00:56.511Z,89.30
2024-02-21T00:09:05.102Z,89.30
2024-02-21T00:17:10.940Z,89.80
2024-02-21T00:25:19.262Z,89.60
2024-02-21T00:33:25.130Z,90.10
2024-02-21T00:41:33.615Z,90.50
2024-02-21T00:49:39.319Z,90.50
2024-02-21T00:57:47.580Z,90.40
2024-02-21T01:05:53.387Z,90.50
2024-02-21T01:14:02.814Z,90.40
2024-02-21T01:22:08.773Z,90.20
2024-02-21T01:30:17.501Z,90.40
2024-02-21T01:38:23.312Z,90.70
2024-02-21T01:46:32.343Z,90.30
2024-02-21T01:54:41.411Z,90.70
2024-02-21T02:02:50.681Z,90.70
2024-02-21T02:10:56.664Z,90.90
2024-02-21T02:19:05.081Z,90.60
2024-02-21T02:27:13.582Z,90.50
2024-02-21T02:35:19.216Z,90.60
2024-02-21T02:43:27.572Z,90.40
2024-02-21T02:51:33.302Z,90.60
2024-02-21T02:59:41.566Z,90.30
2024-02-21T03:07:48.132Z,90.60
2024-02-21T03:15:56.511Z,90.40
2024-02-21T03:24:02.437Z,90.60
2024-02-21T03:32:11.033Z,90.10
2024-02-21T03:40:17.039Z,90.30
2024-02-21T03:48:25.411Z,90.60
2024-02-21T03:56:30.983Z,90.20
2024-02-21T04:04:40.319Z,90.80
2024-02-21T04:12:46.022Z,90.60
2024-02-21T04:20:56.034Z,90.50
2024-02-21T04:29:01.857Z,90.80
2024-02-21T04:37:10.492Z,91.00
2024-02-21T04:45:16.572Z,91.50
2024-02-21T04:53:24.929Z,91.50
2024-02-21T05:01:32.562Z,91.50
2024-02-21T05:09:40.965Z,91.50
2024-02-21T05:17:47.219Z,91.50
2024-02-21T05:25:55.692Z,91.80
2024-02-21T05:34:05.964Z,92.00
2024-02-21T05:42:14.459Z,92.80
2024-02-21T05:50:20.551Z,92.70
2024-02-21T05:58:28.891Z,92.10
2024-02-21T06:06:34.818Z,91.90
2024-02-21T06:14:43.157Z,91.30
2024-02-21T06:22:49.000Z,91.20
2024-02-21T06:30:57.240Z,91.80
2024-02-21T06:39:06.020Z,91.60
2024-02-21T06:47:14.476Z,91.60
2024-02-21T06:55:20.744Z,92.60
2024-02-21T07:03:29.158Z,92.10
2024-02-21T07:11:35.071Z,91.80
2024-02-21T07:19:43.495Z,92.10
2024-02-21T07:27:50.103Z,92.70
2024-02-21T07:35:58.519Z,92.50
2024-02-21T07:44:04.881Z,91.80
2024-02-21T07:52:13.379Z,91.60
2024-02-21T08:00:21.653Z,91.60
2024-02-21T08:08:30.235Z,92.70
2024-02-21T08:16:36.018Z,92.30
2024-02-21T08:24:44.261Z,92.30
2024-02-21T08:32:50.099Z,91.80
2024-02-21T08:40:58.637Z,90.70
2024-02-21T08:49:04.735Z,90.50
2024-02-21T08:57:15.168Z,90.10
2024-02-21T09:05:21.456Z,89.90
2024-02-21T09:13:29.937Z,87.00
2024-02-21T09:21:35.702Z,87.90
2024-02-21T09:29:43.990Z,86.40
2024-02-21T09:37:50.882Z,82.40
2024-02-21T09:46:00.592Z,77.40
2024-02-21T09:54:15.724Z,77.00
2024-02-21T10:02:25.665Z,74.50
2024-02-21T10:10:31.893Z,75.80
2024-02-21T10:18:40.403Z,66.60
2024-02-21T10:26:46.226Z,70.50
2024-02-21T10:34:54.792Z,73.60
2024-02-21T10:43:02.989Z,68.10
2024-02-21T10:51:25.098Z,66.20
2024-02-21T10:59:33.248Z,69.00
2024-02-21T11:07:42.905Z,69.10
2024-02-21T11:15:49.275Z,69.20
2024-02-21T11:24:03.444Z,69.20
2024-02-21T11:32:10.044Z,70.90
2024-02-21T11:40:18.626Z,68.20
2024-02-21T11:48:24.881Z,65.20
2024-02-21T11:56:33.461Z,62.50
2024-02-21T12:04:40.231Z,62.40
2024-02-21T12:12:48.760Z,62.40
2024-02-21T12:20:54.580Z,62.00
2024-02-21T12:29:03.179Z,62.40
2024-02-21T12:37:09.015Z,64.20
2024-02-21T12:45:17.599Z,67.10
2024-02-21T12:53:29.149Z,68.90
2024-02-21T13:01:41.917Z,70.20
2024-02-21T13:09:48.142Z,70.70
2024-02-21T13:17:56.324Z,71.00
2024-02-21T13:26:02.253Z,71.40
2024-02-21T13:34:12.540Z,71.00
2024-02-21T13:42:18.911Z,70.80
2024-02-21T13:50:35.882Z,71.50
2024-02-21T13:58:41.713Z,71.10
2024-02-21T14:06:50.345Z,71.40
2024-02-21T14:14:58.361Z,71.80
2024-02-21T14:23:06.926Z,71.10
2024-02-21T14:31:13.147Z,72.20
2024-02-21T14:39:21.497Z,72.80
2024-02-21T14:47:27.205Z,72.90
2024-02-21T14:55:35.457Z,73.70
2024-02-21T15:03:41.186Z,74.90
2024-02-21T15:11:49.602Z,75.90
2024-02-21T15:19:56.532Z,76.60
2024-02-21T15:28:05.981Z,77.00
2024-02-21T15:36:12.312Z,77.50
2024-02-21T15:44:22.522Z,78.00
2024-02-21T15:52:28.259Z,78.60
2024-02-21T16:00:36.662Z,78.70
2024-02-21T16:08:42.619Z,78.40
2024-02-21T16:16:51.279Z,78.80
2024-02-21T16:24:57.345Z,79.60
2024-02-21T16:33:05.644Z,80.20
2024-02-21T16:41:11.636Z,80.00
2024-02-21T16:49:19.946Z,80.30
2024-02-21T16:57:25.828Z,80.50
2024-02-21T17:05:34.246Z,80.60
2024-02-21T17:13:41.327Z,80.80
2024-02-21T17:21:49.887Z,80.30
2024-02-21T17:29:55.636Z,81.30
2024-02-21T17:38:04.605Z,81.00
2024-02-21T17:46:11.905Z,81.10
2024-02-21T17:54:20.374Z,81.80
2024-02-21T18:02:26.121Z,80.60
2024-02-21T18:10:34.623Z,79.80
2024-02-21T18:18:40.449Z,79.80
2024-02-21T18:26:49.974Z,80.20
2024-02-21T18:34:55.990Z,80.60
2024-02-21T18:43:06.026Z,80.70
2024-02-21T18:51:11.930Z,80.70
2024-02-21T18:59:20.697Z,81.00
2024-02-21T19:07:26.386Z,80.50
2024-02-21T19:15:38.368Z,80.80
2024-02-21T19:50:34.095Z,81.50
2024-02-21T19:58:40.980Z,82.40
2024-02-21T20:06:49.509Z,82.00
2024-02-21T20:14:57.972Z,82.80
2024-02-21T20:23:08.659Z,83.20
2024-02-21T20:31:20.856Z,83.10
2024-02-21T20:39:30.309Z,83.50
2024-02-21T20:47:36.114Z,83.60
2024-02-21T20:55:44.615Z,84.20
2024-02-21T21:03:50.829Z,85.70
2024-02-21T21:11:59.234Z,85.80
2024-02-21T21:20:06.636Z,85.50
2024-02-21T21:28:15.020Z,85.60
2024-02-21T21:36:21.580Z,85.00
2024-02-21T21:44:30.403Z,85.80
2024-02-21T21:52:36.237Z,85.80
2024-02-21T22:00:45.277Z,86.00
2024-02-21T22:08:53.024Z,86.80
2024-02-21T22:17:01.659Z,86.00
2024-02-21T22:25:07.957Z,84.80
2024-02-21T22:33:16.637Z,85.60
2024-02-21T22:41:23.326Z,87.30
2024-02-21T22:49:32.256Z,87.30
2024-02-21T22:57:38.625Z,87.90
2024-02-21T23:05:47.089Z,87.10
2024-02-21T23:13:52.951Z,86.80
2024-02-21T23:22:01.389Z,87.10
2024-02-21T23:30:08.458Z,87.00
2024-02-21T23:38:16.732Z,86.70
2024-02-21T23:46:22.613Z,87.20
2024-02-21T23:54:30.893Z,87.40
